createdAt,value
2018-11-10T00:00:10.197Z,8.44
2018-11-10T00:02:38.584Z,8.43
2018-11-10T00:05:07.004Z,8.45
2018-11-10T00:07:35.381Z,8.46
2018-11-10T00:10:03.961Z,8.46
2018-11-10T00:12:32.296Z,8.46
2018-11-10T00:15:01.605Z,8.43
2018-11-10T00:17:29.976Z,8.43
2018-11-10T00:19:58.843Z,8.42
2018-11-10T00:22:27.255Z,8.40
2018-11-10T00:24:55.738Z,8.43
2018-11-10T00:27:24.171Z,8.42
2018-11-10T00:29:53.362Z,8.37
2018-11-10T00:32:22.157Z,8.38
2018-11-10T00:34:50.583Z,8.35
2018-11-10T00:37:18.917Z,8.38
2018-11-10T00:39:47.341Z,8.38
2018-11-10T00:42:15.702Z,8.37
2018-11-10T00:44:44.116Z,8.32
2018-11-10T00:47:12.489Z,8.32
2018-11-10T00:49:40.913Z,8.34
2018-11-10T00:52:09.355Z,8.30
2018-11-10T00:54:37.785Z,8.26
2018-11-10T00:57:06.177Z,8.19
2018-11-10T00:59:34.528Z,8.15
2018-11-10T01:02:02.911Z,8.14
2018-11-10T01:04:31.290Z,8.12
2018-11-10T01:06:59.657Z,8.12
2018-11-10T01:09:28.153Z,8.11
2018-11-10T01:11:56.516Z,8.12
2018-11-10T01:14:25.314Z,8.11
2018-11-10T01:16:53.667Z,8.11
2018-11-10T01:19:22.045Z,8.12
2018-11-10T01:21:50.414Z,8.09
2018-11-10T01:24:18.792Z,8.04
2018-11-10T01:26:47.139Z,8.04
2018-11-10T01:29:15.561Z,7.98
2018-11-10T01:31:43.949Z,7.95
2018-11-10T01:34:12.327Z,7.91
2018-11-10T01:36:40.688Z,7.89
2018-11-10T01:39:09.973Z,7.87
2018-11-10T01:41:38.969Z,7.85
2018-11-10T01:44:07.965Z,7.85
2018-11-10T01:46:36.463Z,7.84
2018-11-10T01:49:05.029Z,7.83
2018-11-10T01:51:33.421Z,7.83
2018-11-10T01:54:02.081Z,7.81
2018-11-10T01:56:30.981Z,7.79
2018-11-10T01:58:59.429Z,7.79
2018-11-10T02:01:28.665Z,7.74
2018-11-10T02:03:57.136Z,7.77
2018-11-10T02:06:25.572Z,7.74
2018-11-10T02:08:53.941Z,7.74
2018-11-10T02:11:22.337Z,7.77
2018-11-10T02:13:50.704Z,7.74
2018-11-10T02:16:19.099Z,7.73
2018-11-10T02:18:47.475Z,7.71
2018-11-10T02:21:15.832Z,7.67
2018-11-10T02:23:44.247Z,7.66
2018-11-10T02:26:12.645Z,7.64
2018-11-10T02:28:41.055Z,7.65
2018-11-10T02:31:09.410Z,7.62
2018-11-10T02:33:37.785Z,7.61
2018-11-10T02:36:06.165Z,7.57
2018-11-10T02:38:34.613Z,7.54
2018-11-10T02:41:03.033Z,7.57
2018-11-10T02:43:31.430Z,7.56
2018-11-10T02:45:59.781Z,7.58
2018-11-10T02:48:28.161Z,7.57
2018-11-10T02:50:56.561Z,7.58
2018-11-10T02:53:24.912Z,7.54
2018-11-10T02:55:53.272Z,7.54
2018-11-10T02:58:21.633Z,7.48
2018-11-10T03:00:50.025Z,7.49
2018-11-10T03:03:18.395Z,7.47
2018-11-10T03:05:46.760Z,7.47
2018-11-10T03:08:15.117Z,7.47
2018-11-10T03:10:44.143Z,7.50
2018-11-10T03:13:12.916Z,7.48
2018-11-10T03:15:41.292Z,7.47
2018-11-10T03:18:09.642Z,7.47
2018-11-10T03:20:38.032Z,7.44
2018-11-10T03:23:06.434Z,7.43
2018-11-10T03:25:34.844Z,7.41
2018-11-10T03:28:03.257Z,7.40
2018-11-10T03:30:31.701Z,7.41
2018-11-10T03:33:00.069Z,7.36
2018-11-10T03:35:28.465Z,7.33
2018-11-10T03:37:56.891Z,7.30
2018-11-10T03:40:26.073Z,7.29
2018-11-10T03:42:55.298Z,7.27
2018-11-10T03:45:23.986Z,7.20
2018-11-10T03:47:52.496Z,7.24
2018-11-10T03:50:20.911Z,7.25
2018-11-10T03:52:49.274Z,7.22
2018-11-10T03:55:17.687Z,7.17
2018-11-10T03:57:46.087Z,7.16
2018-11-10T04:00:15.385Z,7.12
2018-11-10T04:02:45.009Z,7.09
2018-11-10T04:05:13.873Z,7.08
2018-11-10T04:07:43.572Z,7.12
2018-11-10T04:10:12.416Z,7.07
2018-11-10T04:12:40.960Z,7.02
2018-11-10T04:15:09.365Z,7.04
2018-11-10T04:17:37.772Z,6.94
2018-11-10T04:20:07.222Z,6.92
2018-11-10T04:22:36.624Z,6.90
2018-11-10T04:25:06.623Z,6.88
2018-11-10T04:27:35.195Z,6.83
2018-11-10T04:30:04.729Z,6.80
2018-11-10T04:32:33.625Z,6.74
2018-11-10T04:35:02.014Z,6.77
2018-11-10T04:37:30.402Z,6.74
2018-11-10T04:39:59.193Z,6.70
2018-11-10T04:42:27.552Z,6.70
2018-11-10T04:44:55.958Z,6.70
2018-11-10T04:47:24.364Z,6.66
2018-11-10T04:49:52.770Z,6.69
2018-11-10T04:52:21.133Z,6.65
2018-11-10T04:54:49.519Z,6.68
2018-11-10T04:57:17.885Z,6.65
2018-11-10T04:59:46.227Z,6.71
2018-11-10T05:02:14.607Z,6.72
2018-11-10T05:04:43.011Z,6.69
2018-11-10T05:07:11.403Z,6.68
2018-11-10T05:09:39.752Z,6.67
2018-11-10T05:12:08.099Z,6.71
2018-11-10T05:14:36.481Z,6.71
2018-11-10T05:17:05.428Z,6.71
2018-11-10T05:19:33.801Z,6.68
2018-11-10T05:22:02.305Z,6.71
2018-11-10T05:24:30.706Z,6.75
2018-11-10T05:26:59.120Z,6.73
2018-11-10T05:29:27.488Z,6.73
2018-11-10T05:31:56.452Z,6.76
2018-11-10T05:34:24.810Z,6.77
2018-11-10T05:36:53.184Z,6.79
2018-11-10T05:39:21.533Z,6.78
2018-11-10T05:41:50.321Z,6.78
2018-11-10T05:44:19.981Z,6.77
2018-11-10T05:46:48.364Z,6.78
2018-11-10T05:49:16.956Z,6.79
2018-11-10T05:51:46.160Z,6.83
2018-11-10T05:54:14.592Z,6.80
2018-11-10T05:56:43.712Z,6.80
2018-11-10T05:59:12.085Z,6.86
2018-11-10T06:01:40.463Z,6.89
2018-11-10T06:04:08.867Z,6.89
2018-11-10T06:06:37.320Z,6.82
2018-11-10T06:09:08.365Z,6.81
2018-11-10T06:11:37.252Z,6.80
2018-11-10T06:14:05.972Z,6.82
2018-11-10T06:16:34.482Z,6.81
2018-11-10T06:19:03.302Z,6.83
2018-11-10T06:21:31.679Z,6.85
2018-11-10T06:24:00.032Z,6.83
2018-11-10T06:26:28.989Z,6.81
2018-11-10T06:28:57.385Z,6.81
2018-11-10T06:31:25.753Z,6.79
2018-11-10T06:33:54.405Z,6.80
2018-11-10T06:36:22.789Z,6.83
2018-11-10T06:38:51.335Z,6.86
2018-11-10T06:41:19.740Z,6.89
2018-11-10T06:43:48.597Z,6.87
2018-11-10T06:46:17.172Z,6.85
2018-11-10T06:48:45.565Z,6.81
2018-11-10T06:51:13.920Z,6.81
2018-11-10T06:53:42.529Z,6.81
2018-11-10T06:56:11.492Z,6.76
2018-11-10T06:58:40.826Z,6.80
2018-11-10T07:01:09.635Z,6.79
2018-11-10T07:03:38.099Z,6.80
2018-11-10T07:06:06.833Z,6.82
2018-11-10T07:08:35.201Z,6.79
2018-11-10T07:11:03.619Z,6.84
2018-11-10T07:13:31.953Z,6.86
2018-11-10T07:16:00.296Z,6.91
2018-11-10T07:18:28.812Z,6.87
2018-11-10T07:20:57.166Z,6.94
2018-11-10T07:23:25.539Z,7.00
2018-11-10T07:25:53.917Z,7.00
2018-11-10T07:28:22.430Z,7.02
2018-11-10T07:30:51.049Z,6.94
2018-11-10T07:33:19.407Z,6.98
2018-11-10T07:35:47.807Z,6.98
2018-11-10T07:38:16.185Z,7.09
2018-11-10T07:40:44.533Z,7.13
2018-11-10T07:43:13.143Z,7.21
2018-11-10T07:45:41.570Z,7.21
2018-11-10T07:48:10.006Z,7.24
2018-11-10T07:50:38.395Z,7.28
2018-11-10T07:53:06.804Z,7.25
2018-11-10T07:55:35.319Z,7.29
2018-11-10T07:58:03.663Z,7.37
2018-11-10T08:00:32.148Z,7.34
2018-11-10T08:03:01.039Z,7.41
2018-11-10T08:05:29.863Z,7.39
2018-11-10T08:07:58.267Z,7.46
2018-11-10T08:10:26.658Z,7.55
2018-11-10T08:12:55.005Z,7.60
2018-11-10T08:15:23.581Z,7.65
2018-11-10T08:17:52.582Z,7.67
2018-11-10T08:20:21.366Z,7.74
2018-11-10T08:22:49.953Z,7.78
2018-11-10T08:25:18.327Z,7.80
2018-11-10T08:27:46.681Z,7.84
2018-11-10T08:30:15.735Z,7.83
2018-11-10T08:32:44.529Z,7.87
2018-11-10T08:35:14.851Z,7.89
2018-11-10T08:37:43.368Z,7.85
2018-11-10T08:40:14.361Z,7.85
2018-11-10T08:42:42.824Z,7.94
2018-11-10T08:45:12.470Z,7.93
2018-11-10T08:47:41.557Z,8.04
2018-11-10T08:50:11.164Z,8.07
2018-11-10T08:52:39.949Z,8.10
2018-11-10T08:55:08.947Z,8.14
2018-11-10T08:57:38.038Z,8.22
2018-11-10T09:00:07.823Z,8.22
2018-11-10T09:02:36.905Z,8.27
2018-11-10T09:05:06.247Z,8.25
2018-11-10T09:07:34.803Z,8.32
2018-11-10T09:10:03.212Z,8.40
2018-11-10T09:12:31.562Z,8.42
2018-11-10T09:14:59.975Z,8.52
2018-11-10T09:17:28.871Z,8.58
2018-11-10T09:19:58.606Z,8.60
2018-11-10T09:22:27.516Z,8.60
2018-11-10T09:24:55.975Z,8.58
2018-11-10T09:27:24.338Z,8.62
2018-11-10T09:29:52.771Z,8.67
2018-11-10T09:32:21.113Z,8.82
2018-11-10T09:34:49.488Z,8.91
2018-11-10T09:37:17.912Z,9.03
2018-11-10T09:39:46.856Z,9.13
2018-11-10T09:42:15.273Z,9.20
2018-11-10T09:44:43.668Z,9.21
2018-11-10T09:47:13.345Z,9.37
2018-11-10T09:49:41.753Z,9.29
2018-11-10T09:52:10.107Z,9.31
2018-11-10T09:54:38.521Z,9.31
2018-11-10T09:57:06.924Z,9.35
2018-11-10T09:59:35.321Z,9.45
2018-11-10T10:02:04.047Z,9.46
2018-11-10T10:04:32.102Z,9.60
2018-11-10T10:07:00.465Z,9.70
2018-11-10T10:09:28.855Z,9.79
2018-11-10T10:11:57.291Z,9.87
2018-11-10T10:14:25.669Z,10.04
2018-11-10T10:16:54.048Z,10.06
2018-11-10T10:19:22.469Z,10.10
2018-11-10T10:21:50.918Z,10.07
2018-11-10T10:24:19.265Z,10.12
2018-11-10T10:26:47.620Z,10.35
2018-11-10T10:29:16.023Z,10.25
2018-11-10T10:31:44.531Z,10.19
2018-11-10T10:34:12.958Z,10.25
2018-11-10T10:36:41.293Z,10.21
2018-11-10T10:39:10.315Z,10.19
2018-11-10T10:41:39.307Z,10.07
2018-11-10T10:44:08.699Z,10.14
2018-11-10T10:46:37.112Z,10.27
2018-11-10T10:49:06.295Z,10.29
2018-11-10T10:51:35.061Z,10.38
2018-11-10T10:54:03.436Z,10.44
2018-11-10T10:56:31.855Z,10.50
2018-11-10T10:59:00.213Z,10.59
2018-11-10T11:01:33.836Z,10.68
2018-11-10T11:04:09.389Z,10.67
2018-11-10T11:06:37.741Z,10.68
2018-11-10T11:09:07.406Z,10.86
2018-11-10T11:11:35.882Z,10.87
2018-11-10T11:14:04.235Z,10.97
2018-11-10T11:16:32.581Z,11.00
2018-11-10T11:19:00.945Z,10.95
2018-11-10T11:21:29.329Z,10.93
2018-11-10T11:23:57.701Z,10.94
2018-11-10T11:26:26.073Z,10.92
2018-11-10T11:28:54.451Z,10.96
2018-11-10T11:31:22.849Z,10.99
2018-11-10T11:33:51.273Z,10.95
2018-11-10T11:36:19.616Z,10.99
2018-11-10T11:38:47.997Z,10.97
2018-11-10T11:41:16.433Z,10.92
2018-11-10T11:43:44.785Z,10.94
2018-11-10T11:46:13.148Z,11.04
2018-11-10T11:48:41.524Z,11.01
2018-11-10T11:51:09.963Z,11.06
2018-11-10T11:53:38.388Z,11.13
2018-11-10T11:56:06.748Z,11.16
2018-11-10T11:58:35.143Z,11.20
2018-11-10T12:01:03.744Z,11.14
2018-11-10T12:03:32.109Z,11.14
2018-11-10T12:06:00.471Z,11.19
2018-11-10T12:08:29.008Z,11.25
2018-11-10T12:10:57.385Z,11.20
2018-11-10T12:13:25.758Z,11.20
2018-11-10T12:15:54.132Z,11.23
2018-11-10T12:18:22.545Z,11.21
2018-11-10T12:20:50.971Z,11.27
2018-11-10T12:23:19.349Z,11.30
2018-11-10T12:25:47.933Z,11.34
2018-11-10T12:28:16.332Z,11.35
2018-11-10T12:30:44.719Z,11.35
2018-11-10T12:33:13.123Z,11.34
2018-11-10T12:35:41.664Z,11.35
2018-11-10T12:38:10.038Z,11.37
2018-11-10T12:40:38.408Z,11.39
2018-11-10T12:43:06.852Z,11.42
2018-11-10T12:45:35.227Z,11.41
2018-11-10T12:48:03.612Z,11.46
2018-11-10T12:50:31.979Z,11.47
2018-11-10T12:53:00.452Z,11.46
2018-11-10T12:55:28.816Z,11.42
2018-11-10T12:57:57.234Z,11.42
2018-11-10T13:00:25.629Z,11.44
2018-11-10T13:02:54.056Z,11.42
2018-11-10T13:05:22.450Z,11.42
2018-11-10T13:07:50.840Z,11.46
2018-11-10T13:10:19.189Z,11.45
2018-11-10T13:12:48.211Z,11.39
2018-11-10T13:15:17.102Z,11.40
2018-11-10T13:17:45.505Z,11.38
2018-11-10T13:20:15.018Z,11.36
2018-11-10T13:22:43.460Z,11.37
2018-11-10T13:25:12.806Z,11.39
2018-11-10T13:27:41.238Z,11.37
2018-11-10T13:30:11.403Z,11.39
2018-11-10T13:32:39.791Z,11.44
2018-11-10T13:35:08.979Z,11.43
2018-11-10T13:37:37.372Z,11.44
2018-11-10T13:40:06.403Z,11.48
2018-11-10T13:42:34.764Z,11.49
2018-11-10T13:45:03.522Z,11.53
2018-11-10T13:47:32.405Z,11.55
2018-11-10T13:50:01.547Z,11.55
2018-11-10T13:52:30.246Z,11.58
2018-11-10T13:54:58.373Z,11.60
2018-11-10T13:57:26.750Z,11.63
2018-11-10T13:59:55.141Z,11.67
2018-11-10T14:02:23.546Z,11.67
2018-11-10T14:04:51.959Z,11.76
2018-11-10T14:07:20.353Z,11.78
2018-11-10T14:09:48.785Z,11.76
2018-11-10T14:12:17.199Z,11.76
2018-11-10T14:14:45.613Z,11.76
2018-11-10T14:17:14.324Z,11.77
2018-11-10T14:19:43.122Z,11.82
2018-11-10T14:22:12.047Z,11.81
2018-11-10T14:24:40.461Z,11.80
2018-11-10T14:27:08.875Z,11.83
2018-11-10T14:29:37.389Z,11.82
2018-11-10T14:32:06.376Z,11.85
2018-11-10T14:34:34.727Z,11.86
2018-11-10T14:37:03.588Z,11.86
2018-11-10T14:39:31.971Z,11.88
2018-11-10T14:42:00.378Z,11.87
2018-11-10T14:44:28.794Z,11.86
2018-11-10T14:46:57.181Z,11.89
2018-11-10T14:49:25.816Z,11.88
2018-11-10T14:51:54.271Z,11.87
2018-11-10T14:54:22.707Z,11.85
2018-11-10T14:56:51.054Z,11.82
2018-11-10T14:59:19.478Z,11.85
2018-11-10T15:01:47.864Z,11.82
2018-11-10T15:04:16.634Z,11.77
2018-11-10T15:06:45.033Z,11.79
2018-11-10T15:09:13.444Z,11.78
2018-11-10T15:11:41.911Z,11.77
2018-11-10T15:14:10.227Z,11.73
2018-11-10T15:16:38.607Z,11.71
2018-11-10T15:19:07.376Z,11.65
2018-11-10T15:21:35.743Z,11.64
2018-11-10T15:24:04.220Z,11.65
2018-11-10T15:26:32.643Z,11.65
2018-11-10T15:29:01.655Z,11.61
2018-11-10T15:31:30.041Z,11.61
2018-11-10T15:33:58.421Z,11.59
2018-11-10T15:36:26.790Z,11.57
2018-11-10T15:38:55.174Z,11.55
2018-11-10T15:41:23.996Z,11.51
2018-11-10T15:43:52.412Z,11.50
2018-11-10T15:46:20.763Z,11.48
2018-11-10T15:48:49.132Z,11.46
2018-11-10T15:51:17.525Z,11.47
2018-11-10T15:53:45.904Z,11.45
2018-11-10T15:56:14.281Z,11.42
2018-11-10T15:58:42.795Z,11.42
2018-11-10T16:01:11.155Z,11.40
2018-11-10T16:03:39.548Z,11.37
2018-11-10T16:06:07.928Z,11.40
2018-11-10T16:08:36.296Z,11.38
2018-11-10T16:11:05.036Z,11.37
2018-11-10T16:13:33.548Z,11.35
2018-11-10T16:16:01.955Z,11.33
2018-11-10T16:18:30.302Z,11.32
2018-11-10T16:20:58.797Z,11.32
2018-11-10T16:23:27.161Z,11.31
2018-11-10T16:25:55.525Z,11.30
2018-11-10T16:28:23.977Z,11.32
2018-11-10T16:30:52.358Z,11.32
2018-11-10T16:33:20.752Z,11.32
2018-11-10T16:35:49.099Z,11.31
2018-11-10T16:38:17.479Z,11.29
2018-11-10T16:40:45.920Z,11.29
2018-11-10T16:43:14.368Z,11.28
2018-11-10T16:45:43.190Z,11.27
2018-11-10T16:48:11.608Z,11.27
2018-11-10T16:50:39.985Z,11.25
2018-11-10T16:53:08.455Z,11.25
2018-11-10T16:55:36.815Z,11.25
2018-11-10T16:58:05.602Z,11.23
2018-11-10T17:00:34.046Z,11.21
2018-11-10T17:03:02.425Z,11.19
2018-11-10T17:05:30.768Z,11.18
2018-11-10T17:07:59.153Z,11.14
2018-11-10T17:10:27.528Z,11.12
2018-11-10T17:12:56.004Z,11.10
2018-11-10T17:15:24.457Z,11.09
2018-11-10T17:17:53.755Z,11.07
2018-11-10T17:20:22.617Z,11.05
2018-11-10T17:22:51.015Z,11.03
2018-11-10T17:25:20.064Z,10.99
2018-11-10T17:27:48.459Z,10.97
2018-11-10T17:30:18.625Z,10.96
2018-11-10T17:32:47.002Z,10.93
2018-11-10T17:35:15.729Z,10.92
2018-11-10T17:37:44.812Z,10.87
2018-11-10T17:40:14.248Z,10.86
2018-11-10T17:42:42.643Z,10.85
2018-11-10T17:45:12.901Z,10.84
2018-11-10T17:47:41.885Z,10.79
2018-11-10T17:50:11.603Z,10.77
2018-11-10T17:52:41.712Z,10.76
2018-11-10T17:55:11.728Z,10.72
2018-11-10T17:57:40.736Z,10.71
2018-11-10T18:00:09.081Z,10.69
2018-11-10T18:02:37.837Z,10.62
2018-11-10T18:05:07.916Z,10.64
2018-11-10T18:07:36.331Z,10.62
2018-11-10T18:10:05.389Z,10.59
2018-11-10T18:12:33.934Z,10.55
2018-11-10T18:15:02.415Z,10.51
2018-11-10T18:17:30.796Z,10.51
2018-11-10T18:19:59.161Z,10.45
2018-11-10T18:22:27.529Z,10.47
2018-11-10T18:24:55.910Z,10.42
2018-11-10T18:27:24.289Z,10.39
2018-11-10T18:29:52.659Z,10.38
2018-11-10T18:32:21.241Z,10.35
2018-11-10T18:34:49.640Z,10.35
2018-11-10T18:37:18.302Z,10.30
2018-11-10T18:39:47.279Z,10.28
2018-11-10T18:42:15.823Z,10.24
2018-11-10T18:44:44.183Z,10.21
2018-11-10T18:47:12.586Z,10.18
2018-11-10T18:49:41.016Z,10.19
2018-11-10T18:52:09.482Z,10.16
2018-11-10T18:54:37.842Z,10.16
2018-11-10T18:57:06.552Z,10.17
2018-11-10T18:59:35.791Z,10.17
2018-11-10T19:02:04.167Z,10.17
2018-11-10T19:04:33.334Z,10.16
2018-11-10T19:07:01.762Z,10.16
2018-11-10T19:09:30.201Z,10.13
2018-11-10T19:11:58.791Z,10.14
2018-11-10T19:14:27.193Z,10.12
2018-11-10T19:16:55.658Z,10.11
2018-11-10T19:19:24.026Z,10.09
2018-11-10T19:21:52.442Z,10.07
2018-11-10T19:24:21.215Z,10.06
2018-11-10T19:26:49.572Z,10.05
2018-11-10T19:29:17.932Z,10.02
2018-11-10T19:31:46.968Z,9.99
2018-11-10T19:34:15.618Z,9.99
2018-11-10T19:36:43.987Z,9.98
2018-11-10T19:39:13.393Z,9.95
2018-11-10T19:41:42.093Z,9.88
2018-11-10T19:44:11.008Z,9.90
2018-11-10T19:46:40.478Z,9.88
2018-11-10T19:49:09.374Z,9.84
2018-11-10T19:51:37.942Z,9.79
2018-11-10T19:54:06.222Z,9.78
2018-11-10T19:56:34.601Z,9.74
2018-11-10T19:59:03.011Z,9.73
2018-11-10T20:01:31.532Z,9.66
2018-11-10T20:03:59.943Z,9.63
2018-11-10T20:06:28.371Z,9.59
2018-11-10T20:08:56.721Z,9.59
2018-11-10T20:11:25.459Z,9.53
2018-11-10T20:13:53.858Z,9.49
2018-11-10T20:16:22.265Z,9.47
2018-11-10T20:18:50.622Z,9.43
2018-11-10T20:21:19.012Z,9.41
2018-11-10T20:23:47.588Z,9.40
2018-11-10T20:26:15.968Z,9.38
2018-11-10T20:28:44.388Z,9.37
2018-11-10T20:31:12.833Z,9.33
2018-11-10T20:33:41.263Z,9.30
2018-11-10T20:36:09.700Z,9.26
2018-11-10T20:38:38.068Z,9.24
2018-11-10T20:41:07.076Z,9.22
2018-11-10T20:43:35.516Z,9.18
2018-11-10T20:46:03.896Z,9.19
2018-11-10T20:48:32.256Z,9.12
2018-11-10T20:51:00.804Z,9.09
2018-11-10T20:53:30.466Z,9.11
2018-11-10T20:55:58.931Z,9.07
2018-11-10T20:58:27.401Z,9.04
2018-11-10T21:00:55.795Z,9.04
2018-11-10T21:03:24.749Z,9.04
2018-11-10T21:05:53.183Z,8.99
2018-11-10T21:08:22.071Z,8.98
2018-11-10T21:10:50.423Z,8.96
2018-11-10T21:13:18.811Z,8.92
2018-11-10T21:15:47.182Z,8.92
2018-11-10T21:18:15.613Z,8.90
2018-11-10T21:20:44.047Z,8.89
2018-11-10T21:23:12.484Z,8.90
2018-11-10T21:25:40.876Z,8.90
2018-11-10T21:28:09.236Z,8.85
2018-11-10T21:30:37.663Z,8.83
2018-11-10T21:33:06.076Z,8.84
2018-11-10T21:35:35.130Z,8.82
2018-11-10T21:38:03.441Z,8.75
2018-11-10T21:40:32.436Z,8.75
2018-11-10T21:43:01.030Z,8.75
2018-11-10T21:45:29.487Z,8.76
2018-11-10T21:47:58.061Z,8.75
2018-11-10T21:50:26.844Z,8.75
2018-11-10T21:52:55.239Z,8.76
2018-11-10T21:55:23.612Z,8.72
2018-11-10T21:57:52.025Z,8.73
2018-11-10T22:00:21.764Z,8.71
2018-11-10T22:02:50.661Z,8.74
2018-11-10T22:05:19.550Z,8.72
2018-11-10T22:07:47.928Z,8.71
2018-11-10T22:10:17.438Z,8.72
2018-11-10T22:12:46.104Z,8.72
2018-11-10T22:15:16.864Z,8.71
2018-11-10T22:17:45.802Z,8.70
2018-11-10T22:20:16.483Z,8.70
2018-11-10T22:22:44.971Z,8.65
2018-11-10T22:25:13.852Z,8.69
2018-11-10T22:27:43.625Z,8.67
2018-11-10T22:30:15.218Z,8.67
2018-11-10T22:32:44.097Z,8.64
2018-11-10T22:35:12.608Z,8.61
2018-11-10T22:37:41.092Z,8.59
2018-11-10T22:40:11.494Z,8.58
2018-11-10T22:42:40.275Z,8.52
2018-11-10T22:45:10.412Z,8.49
2018-11-10T22:47:39.439Z,8.48
2018-11-10T22:50:09.725Z,8.48
2018-11-10T22:52:38.212Z,8.45
2018-11-10T22:55:07.387Z,8.42
2018-11-10T22:57:35.840Z,8.35
2018-11-10T23:00:05.376Z,8.33
2018-11-10T23:02:33.854Z,8.35
2018-11-10T23:05:02.249Z,8.29
2018-11-10T23:07:30.749Z,8.29
2018-11-10T23:09:59.144Z,8.28
2018-11-10T23:12:28.077Z,8.21
2018-11-10T23:14:56.458Z,8.19
2018-11-10T23:17:24.860Z,8.21
2018-11-10T23:19:53.203Z,8.16
2018-11-10T23:22:21.552Z,8.11
2018-11-10T23:24:49.937Z,8.10
2018-11-10T23:27:18.311Z,8.10
2018-11-10T23:29:46.787Z,8.00
2018-11-10T23:32:15.157Z,7.96
2018-11-10T23:34:43.553Z,7.98
2018-11-10T23:37:12.181Z,7.98
2018-11-10T23:39:40.621Z,7.97
2018-11-10T23:42:08.963Z,7.97
2018-11-10T23:44:37.376Z,7.97
2018-11-10T23:47:06.029Z,7.91
2018-11-10T23:49:34.704Z,7.93
2018-11-10T23:52:04.034Z,7.92
2018-11-10T23:54:32.401Z,7.93
2018-11-10T23:57:00.983Z,7.87
2018-11-10T23:59:29.404Z,7.87
